Repubbli Del Brasile — IBZB — position and weather

sailwx.info

Track history (hours):
 
Tides and Currents Weather Stations Pressure Air Temp Water Temp Dewpoint Dewpoint Depression Visibility Wind Speed Wind Dir Waves Ship Positions

Repubbli Del Brasile

Last reported at 2015-May-03 21:24 UTC. Time now 2015-May-03 22:55 UTC.
Position N 35°41' W 006°14'.

Length 209 m; draft 7.8 m.

Type: Ship (hazmat cat A). MMSI: 247310000.

Date/timePositionNaut miles runAvg speedWind from/ knotsBaromVisibWave heightAir tempDewpointWater temp
2015-May-03 21:24N 35°41' W 006°14'1315.1
2015-May-03 20:33N 35°32' W 006°25'1515.2
2015-May-03 19:33N 35°21' W 006°37'1514.9
2015-May-03 18:33N 35°09' W 006°49'1514.9
2015-May-03 17:33N 34°58' W 007°02'1514.8
2015-May-03 16:33N 34°48' W 007°14'1514.8
2015-May-03 15:33N 34°37' W 007°27'6115.1
2015-May-03 11:33N 33°54' W 008°18'1515.2
2015-May-03 10:32N 33°42' W 008°30'7314.6
2015-May-03 05:31N 32°49' W 009°30'3015.2
2015-May-03 03:31N 32°27' W 009°55'  
Track history (hours):
 
Tides and Currents Weather Stations Pressure Air Temp Water Temp Dewpoint Dewpoint Depression Visibility Wind Speed Wind Dir Waves Ship Positions

Repubbli Del Brasile

Last reported at 2015-May-03 21:24 UTC. Time now 2015-May-03 22:55 UTC.
Position N 35°41' W 006°14'.

Length 209 m; draft 7.8 m.

Type: Ship (hazmat cat A). MMSI: 247310000.

Date/timePositionNaut miles runAvg speedWind from/ knotsBaromVisibWave heightAir tempDewpointWater temp
2015-May-03 21:24N 35°41' W 006°14'1315.1
2015-May-03 20:33N 35°32' W 006°25'1515.2
2015-May-03 19:33N 35°21' W 006°37'1514.9
2015-May-03 18:33N 35°09' W 006°49'1514.9
2015-May-03 17:33N 34°58' W 007°02'1514.8
2015-May-03 16:33N 34°48' W 007°14'1514.8
2015-May-03 15:33N 34°37' W 007°27'6115.1
2015-May-03 11:33N 33°54' W 008°18'1515.2
2015-May-03 10:32N 33°42' W 008°30'7314.6
2015-May-03 05:31N 32°49' W 009°30'3015.2
2015-May-03 03:31N 32°27' W 009°55'  

Dump ship's entire track history